Time;durP1;ratioP1;P1;durP2;ratioP2;P2;SDS_P1;SDS_P2;PMS_P1;PMS_P2;Temp;Humidity;BMP_temperature;BMP_pressure;BME280_temperature;BME280_humidity;BME280_pressure;Samples;Min_cycle;Max_cycle;Signal;HPM_P1;HPM_P2
2023/07/16 00:07:02;;;;;;;9.6;5.3;;;;;;;18.74;78.56;;;;;
2023/07/16 00:17:02;;;;;;;9.6;5.3;;;;;;;18.59;79.12;;;;;
2023/07/16 00:27:03;;;;;;;6.7;5;;;;;;;18.43;79.36;;;;;
2023/07/16 00:37:03;;;;;;;6.7;5;;;;;;;18.29;79.55;;;;;
2023/07/16 00:48:02;;;;;;;6.7;5;;;;;;;18.09;79.67;;;;;
2023/07/16 00:58:04;;;;;;;9.4;6.5;;;;;;;17.91;82.55;;;;;
2023/07/16 01:09:02;;;;;;;9.4;6.5;;;;;;;17.88;84.43;;;;;
2023/07/16 01:20:02;;;;;;;10.9;8.1;;;;;;;17.81;83.57;;;;;
2023/07/16 01:30:02;;;;;;;10.9;8.1;;;;;;;17.78;85.33;;;;;
2023/07/16 01:41:02;;;;;;;10.9;8.1;;;;;;;17.73;84.25;;;;;
2023/07/16 01:51:02;;;;;;;11.7;8;;;;;;;17.57;83.65;;;;;
2023/07/16 02:02:02;;;;;;;11.7;8;;;;;;;17.48;84.4;;;;;
2023/07/16 02:12:02;;;;;;;11.7;8;;;;;;;17.4;85.33;;;;;
2023/07/16 02:22:02;;;;;;;10.2;7.6;;;;;;;17.32;85.48;;;;;
2023/07/16 02:32:02;;;;;;;10.2;7.6;;;;;;;17.24;86.01;;;;;
2023/07/16 02:43:02;;;;;;;10.2;7.6;;;;;;;17.11;86.43;;;;;
2023/07/16 02:53:02;;;;;;;10;7.8;;;;;;;17.08;87.18;;;;;
2023/07/16 03:04:02;;;;;;;10;7.8;;;;;;;17.03;86.77;;;;;
2023/07/16 03:15:02;;;;;;;10;7.8;;;;;;;17;86.85;;;;;
2023/07/16 03:26:02;;;;;;;11;7.8;;;;;;;17.14;87.55;;;;;
2023/07/16 03:36:02;;;;;;;11;7.8;;;;;;;17.32;88.29;;;;;
2023/07/16 03:46:02;;;;;;;11;7.8;;;;;;;17.54;87.78;;;;;
2023/07/16 03:56:02;;;;;;;9.2;7.7;;;;;;;17.8;87.72;;;;;
2023/07/16 04:07:02;;;;;;;9.2;7.7;;;;;;;18.12;87.3;;;;;
2023/07/16 04:18:03;;;;;;;9.2;7.7;;;;;;;18.46;86.77;;;;;
2023/07/16 04:28:03;;;;;;;10.7;7;;;;;;;18.88;85.72;;;;;
2023/07/16 04:39:02;;;;;;;10.7;7;;;;;;;19.38;84.9;;;;;
2023/07/16 04:50:02;;;;;;;11.7;7.9;;;;;;;19.97;83.87;;;;;
2023/07/16 05:00:02;;;;;;;11.7;7.9;;;;;;;20.58;82.7;;;;;
2023/07/16 05:11:02;;;;;;;11.7;7.9;;;;;;;21.19;81.19;;;;;
2023/07/16 05:21:02;;;;;;;11.3;9.2;;;;;;;21.78;79.41;;;;;
2023/07/16 05:31:02;;;;;;;11.3;9.2;;;;;;;22.3;78.03;;;;;
2023/07/16 05:41:02;;;;;;;11.3;9.2;;;;;;;22.73;76.18;;;;;
2023/07/16 05:52:02;;;;;;;11.5;8.7;;;;;;;23.29;75.12;;;;;
2023/07/16 06:02:02;;;;;;;11.5;8.7;;;;;;;23.71;74.29;;;;;
2023/07/16 06:13:02;;;;;;;11.5;8.7;;;;;;;24.43;72.61;;;;;
2023/07/16 06:24:02;;;;;;;11.3;7.2;;;;;;;25.07;67.75;;;;;
2023/07/16 06:35:02;;;;;;;11.3;7.2;;;;;;;25.54;63.18;;;;;
2023/07/16 06:45:02;;;;;;;11.3;7.2;;;;;;;25.98;65.32;;;;;
2023/07/16 06:56:02;;;;;;;7.7;5;;;;;;;26.56;64.11;;;;;
2023/07/16 07:07:02;;;;;;;7.7;5;;;;;;;26.93;58.71;;;;;
2023/07/16 07:17:02;;;;;;;7.7;5;;;;;;;27.12;57.24;;;;;
2023/07/16 07:27:02;;;;;;;8.4;5.4;;;;;;;27.46;54.03;;;;;
2023/07/16 07:37:02;;;;;;;8.4;5.4;;;;;;;27.8;54.87;;;;;
2023/07/16 07:48:02;;;;;;;8.4;5.4;;;;;;;28.15;53.18;;;;;
2023/07/16 07:58:02;;;;;;;7.9;5;;;;;;;28.4;52.67;;;;;
2023/07/16 08:08:02;;;;;;;7.9;5;;;;;;;28.74;54.24;;;;;
2023/07/16 08:19:02;;;;;;;7.9;5;;;;;;;29.11;53.89;;;;;
2023/07/16 08:30:02;;;;;;;6.5;4.4;;;;;;;29.43;49.5;;;;;
2023/07/16 08:41:02;;;;;;;6.5;4.4;;;;;;;29.49;50.78;;;;;
2023/07/16 08:51:02;;;;;;;7.4;4.6;;;;;;;29.84;48.69;;;;;
2023/07/16 09:02:02;;;;;;;7.4;4.6;;;;;;;30;46.7;;;;;
2023/07/16 09:12:02;;;;;;;7.4;4.6;;;;;;;30.16;47.77;;;;;
2023/07/16 09:23:02;;;;;;;7.4;4.2;;;;;;;30.19;47.95;;;;;
2023/07/16 09:34:02;;;;;;;7.4;4.2;;;;;;;30.47;46.19;;;;;
2023/07/16 09:44:02;;;;;;;7.4;4.2;;;;;;;30.62;46.29;;;;;
2023/07/16 09:54:02;;;;;;;7.3;4.6;;;;;;;30.79;46.56;;;;;
2023/07/16 10:05:02;;;;;;;7.3;4.6;;;;;;;30.84;45.3;;;;;
2023/07/16 10:15:04;;;;;;;7.3;4.6;;;;;;;31.18;46.11;;;;;
2023/07/16 10:26:05;;;;;;;7.4;4.6;;;;;;;31.33;43.84;;;;;
2023/07/16 10:36:02;;;;;;;7.4;4.6;;;;;;;31.67;43.79;;;;;
2023/07/16 10:47:02;;;;;;;7.4;4.6;;;;;;;31.55;42.77;;;;;
2023/07/16 10:58:02;;;;;;;6.7;3.9;;;;;;;31.97;45.01;;;;;
2023/07/16 11:09:02;;;;;;;6.7;3.9;;;;;;;32.03;39.8;;;;;
2023/07/16 11:19:02;;;;;;;6.7;3.9;;;;;;;32.11;40.18;;;;;
2023/07/16 11:29:02;;;;;;;6.4;3.6;;;;;;;32.42;40.9;;;;;
2023/07/16 11:40:02;;;;;;;6.4;3.6;;;;;;;32.65;37.63;;;;;
2023/07/16 11:50:02;;;;;;;5.7;3.7;;;;;;;32.81;40.3;;;;;
2023/07/16 12:00:06;;;;;;;5.7;3.7;;;;;;;32.9;38.85;;;;;
2023/07/16 12:11:02;;;;;;;5.7;3.7;;;;;;;33.13;38.35;;;;;
2023/07/16 12:21:02;;;;;;;6.7;4.1;;;;;;;33.32;38.18;;;;;
2023/07/16 12:31:02;;;;;;;6.7;4.1;;;;;;;33.49;38.24;;;;;
2023/07/16 12:41:03;;;;;;;6.7;4.1;;;;;;;33.11;39.62;;;;;
2023/07/16 12:51:02;;;;;;;8.9;5.5;;;;;;;33.07;39.39;;;;;
2023/07/16 13:02:02;;;;;;;8.9;5.5;;;;;;;33.55;41.47;;;;;
2023/07/16 13:12:02;;;;;;;8.9;5.5;;;;;;;33.68;39.85;;;;;
2023/07/16 13:22:02;;;;;;;10;6.1;;;;;;;33.92;36.61;;;;;
2023/07/16 13:32:03;;;;;;;10;6.1;;;;;;;34.1;36.3;;;;;
2023/07/16 13:43:03;;;;;;;10;6.1;;;;;;;34.32;37.9;;;;;
2023/07/16 13:54:02;;;;;;;9;5.8;;;;;;;34.63;38.36;;;;;
2023/07/16 14:05:02;;;;;;;9;5.8;;;;;;;35.12;35.64;;;;;
2023/07/16 14:15:02;;;;;;;9;5.8;;;;;;;34.48;38.29;;;;;
2023/07/16 14:26:02;;;;;;;9.2;6.9;;;;;;;34.93;37.63;;;;;
2023/07/16 14:36:02;;;;;;;9.2;6.9;;;;;;;35.23;39.64;;;;;
2023/07/16 14:47:03;;;;;;;9.2;6.9;;;;;;;35.09;36.74;;;;;
2023/07/16 14:57:02;;;;;;;9.1;7.7;;;;;;;34.3;38.66;;;;;
2023/07/16 15:07:02;;;;;;;9.1;7.7;;;;;;;34.15;39.24;;;;;
2023/07/16 15:17:02;;;;;;;9.1;7.7;;;;;;;34.76;37.85;;;;;
2023/07/16 15:27:03;;;;;;;8.9;7.2;;;;;;;36.66;37.46;;;;;
2023/07/16 15:37:02;;;;;;;8.9;7.2;;;;;;;36.91;37.08;;;;;
2023/07/16 15:47:02;;;;;;;8.9;7.2;;;;;;;34.93;39.84;;;;;
2023/07/16 15:57:02;;;;;;;12.4;10.4;;;;;;;33.98;43.66;;;;;
2023/07/16 16:08:02;;;;;;;12.4;10.4;;;;;;;32.78;46.33;;;;;
2023/07/16 16:18:02;;;;;;;12.4;10.4;;;;;;;31.95;53;;;;;
2023/07/16 16:29:02;;;;;;;15.8;12.6;;;;;;;31.31;50.7;;;;;
2023/07/16 16:39:02;;;;;;;15.8;12.6;;;;;;;30.77;53.87;;;;;
2023/07/16 16:49:02;;;;;;;15.8;12.6;;;;;;;30.33;55.46;;;;;
2023/07/16 17:00:04;;;;;;;12.2;11;;;;;;;32.03;54.49;;;;;
2023/07/16 17:11:02;;;;;;;12.2;11;;;;;;;32.11;55.35;;;;;
2023/07/16 17:22:02;;;;;;;14.2;10.8;;;;;;;31.75;55.1;;;;;
2023/07/16 17:33:02;;;;;;;14.2;10.8;;;;;;;31.06;58.73;;;;;
2023/07/16 17:43:02;;;;;;;14.2;10.8;;;;;;;30.53;59.89;;;;;
2023/07/16 17:53:02;;;;;;;13.4;11.3;;;;;;;30.02;56.41;;;;;
2023/07/16 18:03:03;;;;;;;13.4;11.3;;;;;;;29.74;57.63;;;;;
2023/07/16 18:13:03;;;;;;;13.4;11.3;;;;;;;29.28;62.06;;;;;
2023/07/16 18:24:02;;;;;;;14.6;12.7;;;;;;;28.75;63.57;;;;;
2023/07/16 18:34:03;;;;;;;14.6;12.7;;;;;;;28.42;61.88;;;;;
2023/07/16 18:44:02;;;;;;;14.6;12.7;;;;;;;28.05;61.39;;;;;
2023/07/16 18:54:02;;;;;;;14.5;12.8;;;;;;;27.65;62.98;;;;;
2023/07/16 19:05:03;;;;;;;14.5;12.8;;;;;;;27.16;65.2;;;;;
2023/07/16 19:15:03;;;;;;;14.5;12.8;;;;;;;26.81;65.92;;;;;
2023/07/16 19:26:02;;;;;;;16.8;14.5;;;;;;;26.43;66.07;;;;;
2023/07/16 19:36:02;;;;;;;16.8;14.5;;;;;;;26.02;67.59;;;;;
2023/07/16 19:46:03;;;;;;;16.8;14.5;;;;;;;25.77;69.53;;;;;
2023/07/16 19:56:02;;;;;;;16.3;13.8;;;;;;;25.56;69.54;;;;;
2023/07/16 20:07:02;;;;;;;16.3;13.8;;;;;;;25.34;69.38;;;;;
2023/07/16 20:17:02;;;;;;;16.3;13.8;;;;;;;25.09;69.75;;;;;
2023/07/16 20:27:02;;;;;;;15.2;13.4;;;;;;;24.82;70.16;;;;;
2023/07/16 20:37:02;;;;;;;15.2;13.4;;;;;;;24.59;73.37;;;;;
2023/07/16 20:48:02;;;;;;;15.2;13.4;;;;;;;24.35;73.5;;;;;
2023/07/16 20:58:02;;;;;;;17.4;14.5;;;;;;;24.05;74.24;;;;;
2023/07/16 21:09:03;;;;;;;17.4;14.5;;;;;;;23.9;74.51;;;;;
2023/07/16 21:20:02;;;;;;;17.4;14.5;;;;;;;23.75;75.16;;;;;
2023/07/16 21:30:03;;;;;;;15.8;13.9;;;;;;;23.48;76.53;;;;;
2023/07/16 21:40:02;;;;;;;15.8;13.9;;;;;;;23.49;76.19;;;;;
2023/07/16 21:51:03;;;;;;;15.8;13.9;;;;;;;23.29;78.35;;;;;
2023/07/16 22:02:02;;;;;;;16.2;14.5;;;;;;;23.17;78.02;;;;;
2023/07/16 22:13:04;;;;;;;16.2;14.5;;;;;;;22.99;78.53;;;;;
2023/07/16 22:23:02;;;;;;;17.9;15.5;;;;;;;22.89;79.01;;;;;
2023/07/16 22:33:02;;;;;;;17.9;15.5;;;;;;;22.7;79.12;;;;;
2023/07/16 22:43:03;;;;;;;17.9;15.5;;;;;;;22.54;78.77;;;;;
2023/07/16 22:54:04;;;;;;;18.3;14.6;;;;;;;22.34;79.41;;;;;
2023/07/16 23:04:02;;;;;;;18.3;14.6;;;;;;;22.22;79.78;;;;;
2023/07/16 23:14:02;;;;;;;18.3;14.6;;;;;;;22.08;80.35;;;;;
2023/07/16 23:24:04;;;;;;;15.2;13.6;;;;;;;21.94;80.99;;;;;
2023/07/16 23:35:02;;;;;;;15.2;13.6;;;;;;;21.95;81.96;;;;;
2023/07/16 23:45:04;;;;;;;15.2;13.6;;;;;;;21.96;81.18;;;;;
2023/07/16 23:56:02;;;;;;;15.3;13.1;;;;;;;21.85;81.03;;;;;
